Time;durP1;ratioP1;P1;durP2;ratioP2;P2;SDS_P1;SDS_P2;PMS_P1;PMS_P2;Temp;Humidity;BMP_temperature;BMP_pressure;BME280_temperature;BME280_humidity;BME280_pressure;Samples;Min_cycle;Max_cycle;Signal;HPM_P1;HPM_P2
2023/04/16 00:09:47;;;;;;;0.93;0.40;;;8.50;86.40;;;;;;20628277;28;20110;-39
2023/04/16 00:19:52;;;;;;;1.98;0.80;;;8.40;99.00;;;;;;20624843;28;20475;-39
2023/04/16 00:29:53;;;;;;;1.13;0.50;;;8.40;99.90;;;;;;20605041;28;20048;-39
2023/04/16 00:39:54;;;;;;;1.77;0.68;;;8.40;99.90;;;;;;20610995;28;20050;-39
2023/04/16 00:49:55;;;;;;;1.17;0.43;;;8.50;99.90;;;;;;20640266;28;20038;-39
2023/04/16 00:59:57;;;;;;;2.75;0.60;;;8.40;99.90;;;;;;20650540;28;20042;-39
2023/04/16 01:09:58;;;;;;;2.55;1.05;;;8.40;99.90;;;;;;20641892;28;20034;-39
2023/04/16 01:19:59;;;;;;;2.08;1.17;;;8.50;99.90;;;;;;20635989;28;20069;-40
2023/04/16 01:30:00;;;;;;;2.10;1.15;;;8.40;99.90;;;;;;20622418;28;20042;-39
2023/04/16 01:40:02;;;;;;;4.47;0.80;;;8.40;99.90;;;;;;20623889;28;20050;-39
2023/04/16 01:50:03;;;;;;;5.18;1.58;;;8.50;99.90;;;;;;20615495;28;20800;-39
2023/04/16 02:00:06;;;;;;;4.35;1.52;;;8.50;99.90;;;;;;20625663;28;20248;-39
2023/04/16 02:10:09;;;;;;;3.10;1.42;;;8.50;99.90;;;;;;20624938;28;20049;-39
2023/04/16 02:20:10;;;;;;;2.22;1.10;;;8.50;99.90;;;;;;20640672;28;20038;-39
2023/04/16 02:41:00;;;;;;;3.58;1.52;;;8.50;99.90;;;;;;21305872;23;20051;-80
2023/04/16 02:51:01;;;;;;;4.15;1.73;;;8.50;99.90;;;;;;20490778;28;20035;-80
2023/04/16 03:01:02;;;;;;;3.80;1.40;;;8.60;99.90;;;;;;20536354;28;20032;-80
2023/04/16 03:11:03;;;;;;;3.28;1.52;;;8.50;99.90;;;;;;20531827;28;20035;-80
2023/04/16 03:21:04;;;;;;;4.70;1.60;;;8.50;99.90;;;;;;20523964;28;20052;-79
2023/04/16 03:31:05;;;;;;;14.23;2.10;;;8.60;99.90;;;;;;20523847;28;20072;-79
2023/04/16 03:41:06;;;;;;;3.45;1.65;;;8.50;99.90;;;;;;20463265;28;20049;-80
2023/04/16 03:51:07;;;;;;;4.28;2.03;;;8.50;99.90;;;;;;20433036;28;20040;-80
2023/04/16 04:01:08;;;;;;;3.65;1.95;;;8.50;99.90;;;;;;20462355;28;20051;-80
2023/04/16 04:11:09;;;;;;;7.05;2.47;;;8.50;99.90;;;;;;20469297;28;20037;-80
2023/04/16 04:21:11;;;;;;;8.23;2.95;;;8.50;99.90;;;;;;20483243;28;22269;-80
2023/04/16 04:31:13;;;;;;;8.68;3.20;;;8.50;99.90;;;;;;20448173;28;20062;-78
2023/04/16 04:41:15;;;;;;;6.45;2.40;;;8.50;99.90;;;;;;20404404;28;20057;-80
2023/04/16 04:51:16;;;;;;;3.47;2.17;;;8.50;99.90;;;;;;20394556;28;20037;-79
2023/04/16 05:01:17;;;;;;;7.00;2.58;;;8.50;99.90;;;;;;20486839;28;20060;-80
2023/04/16 05:11:21;;;;;;;10.23;3.50;;;8.60;99.90;;;;;;20417979;28;20055;-79
2023/04/16 05:21:21;;;;;;;12.65;4.07;;;8.60;99.90;;;;;;20407913;28;20085;-80
2023/04/16 05:31:23;;;;;;;7.25;3.50;;;8.50;99.90;;;;;;20427977;28;20063;-80
2023/04/16 05:41:24;;;;;;;11.50;2.25;;;8.60;99.90;;;;;;20447087;28;20052;-78
2023/04/16 05:51:26;;;;;;;6.95;2.63;;;8.60;99.90;;;;;;20452542;28;20071;-79
2023/04/16 06:01:27;;;;;;;4.60;2.20;;;8.60;99.90;;;;;;20530962;28;20503;-84
2023/04/16 06:11:31;;;;;;;11.45;3.65;;;8.60;99.90;;;;;;20448447;28;20039;-83
2023/04/16 06:21:32;;;;;;;9.15;4.40;;;8.70;99.90;;;;;;20345084;28;20504;-83
2023/04/16 06:31:33;;;;;;;8.88;2.95;;;8.60;99.90;;;;;;20425030;28;20043;-84
2023/04/16 06:41:34;;;;;;;4.95;2.60;;;8.70;99.90;;;;;;20454327;28;20054;-84
2023/04/16 06:51:36;;;;;;;5.65;2.92;;;8.80;99.90;;;;;;20430665;28;20040;-83
2023/04/16 07:01:37;;;;;;;7.50;3.55;;;8.70;99.90;;;;;;20475310;28;20039;-85
2023/04/16 07:11:41;;;;;;;9.95;2.97;;;8.80;99.90;;;;;;20405419;28;20039;-84
2023/04/16 07:21:42;;;;;;;14.45;2.67;;;8.80;99.90;;;;;;20448745;28;20039;-85
2023/04/16 07:31:44;;;;;;;6.65;2.97;;;8.80;99.90;;;;;;20433951;28;20043;-84
2023/04/16 07:41:45;;;;;;;6.22;2.75;;;8.90;99.90;;;;;;20470697;28;20054;-84
2023/04/16 07:51:46;;;;;;;3.85;2.03;;;8.90;99.90;;;;;;20512881;23;20418;-39
2023/04/16 08:01:47;;;;;;;6.72;3.22;;;8.90;99.90;;;;;;20618767;28;20042;-40
2023/04/16 08:11:48;;;;;;;4.90;2.08;;;8.90;99.90;;;;;;20602083;28;20038;-39
2023/04/16 08:21:50;;;;;;;5.55;3.10;;;9.00;99.90;;;;;;20614966;28;20445;-39
2023/04/16 08:31:52;;;;;;;4.20;2.35;;;9.00;99.90;;;;;;20627934;28;20052;-39
2023/04/16 08:41:55;;;;;;;7.05;3.10;;;9.00;99.90;;;;;;20583153;28;20692;-40
2023/04/16 08:51:56;;;;;;;8.57;4.28;;;9.10;99.00;;;;;;20572141;28;20042;-40
2023/04/16 09:01:59;;;;;;;4.40;2.00;;;9.10;99.90;;;;;;20581371;28;20970;-40
2023/04/16 09:12:00;;;;;;;4.82;2.28;;;9.10;99.90;;;;;;20566634;28;20045;-39
2023/04/16 09:22:01;;;;;;;11.63;3.60;;;9.10;99.90;;;;;;20556575;28;20050;-40
2023/04/16 09:32:04;;;;;;;12.63;2.63;;;9.10;99.90;;;;;;20560486;28;20193;-40
2023/04/16 09:42:06;;;;;;;8.20;4.22;;;9.30;99.90;;;;;;20557939;28;21570;-40
2023/04/16 09:52:14;;;;;;;8.77;2.65;;;9.30;99.90;;;;;;20583826;28;20720;-40
2023/04/16 10:02:16;;;;;;;5.93;1.95;;;9.40;99.70;;;;;;20596663;28;20062;-40
2023/04/16 10:12:18;;;;;;;4.97;2.17;;;9.40;98.80;;;;;;20593901;28;20621;-40
2023/04/16 10:22:19;;;;;;;5.45;2.22;;;9.50;99.90;;;;;;20569095;28;20062;-40
2023/04/16 10:32:21;;;;;;;4.13;2.63;;;9.50;99.90;;;;;;20593077;28;20042;-40
2023/04/16 10:42:22;;;;;;;5.68;2.55;;;9.60;92.30;;;;;;20606299;28;20054;-40
2023/04/16 10:52:24;;;;;;;5.03;2.85;;;9.70;90.60;;;;;;20588337;28;20407;-40
2023/04/16 11:02:28;;;;;;;6.53;2.97;;;9.70;90.60;;;;;;20586359;28;20059;-40
2023/04/16 11:12:39;;;;;;;6.28;3.28;;;9.70;93.70;;;;;;20591119;28;20308;-39
2023/04/16 11:22:41;;;;;;;12.15;2.65;;;9.80;83.20;;;;;;20583798;28;20061;-40
2023/04/16 11:32:43;;;;;;;7.47;2.53;;;9.90;82.00;;;;;;20598365;28;20429;-40
2023/04/16 11:42:45;;;;;;;10.38;3.83;;;9.90;83.70;;;;;;20568276;28;20058;-40
2023/04/16 11:52:47;;;;;;;8.15;4.05;;;10.00;85.50;;;;;;20561575;28;21183;-40
2023/04/16 12:02:52;;;;;;;12.23;4.07;;;9.90;84.80;;;;;;20569367;28;20054;-40
2023/04/16 12:13:07;;;;;;;11.57;3.80;;;10.00;81.80;;;;;;20572203;28;20049;-40
2023/04/16 12:23:20;;;;;;;13.63;4.65;;;10.10;86.40;;;;;;20598213;28;20038;-40
2023/04/16 12:33:22;;;;;;;8.05;3.55;;;10.30;74.00;;;;;;20599254;28;20052;-39
2023/04/16 12:43:23;;;;;;;7.57;3.22;;;10.50;53.20;;;;;;20612239;28;20065;-39
2023/04/16 12:53:25;;;;;;;6.30;2.65;;;10.70;54.10;;;;;;20600953;28;20046;-40
2023/04/16 13:03:26;;;;;;;8.15;3.53;;;10.90;48.10;;;;;;20598269;28;20050;-39
2023/04/16 13:13:27;;;;;;;7.63;3.13;;;11.10;30.50;;;;;;20609428;28;20049;-40
2023/04/16 13:23:28;;;;;;;9.85;4.10;;;11.10;26.70;;;;;;20593173;28;20051;-40
2023/04/16 13:33:29;;;;;;;10.57;4.13;;;11.10;24.40;;;;;;20595897;28;20215;-39
2023/04/16 13:43:31;;;;;;;6.50;3.40;;;11.20;18.30;;;;;;20597143;28;20055;-40
2023/04/16 13:53:32;;;;;;;6.03;3.05;;;11.40;16.10;;;;;;20593525;28;20513;-40
2023/04/16 14:03:36;;;;;;;7.20;3.40;;;11.50;12.80;;;;;;20594849;28;20062;-39
2023/04/16 14:13:37;;;;;;;11.32;3.70;;;11.50;9.50;;;;;;20588256;28;20560;-39
2023/04/16 14:23:38;;;;;;;10.43;3.50;;;11.50;5.00;;;;;;20597442;28;20053;-39
2023/04/16 14:33:39;;;;;;;9.65;3.47;;;11.40;6.10;;;;;;20594709;28;20034;-39
2023/04/16 14:43:40;;;;;;;11.02;4.00;;;11.40;7.30;;;;;;20599457;28;20054;-39
2023/04/16 14:53:41;;;;;;;8.18;3.70;;;11.50;1.00;;;;;;20600039;28;20050;-39
2023/04/16 15:03:43;;;;;;;6.47;3.22;;;11.50;1.00;;;;;;20589479;28;20046;-39
2023/04/16 15:13:44;;;;;;;8.18;3.35;;;11.50;2.00;;;;;;20591058;28;20414;-40
2023/04/16 15:23:45;;;;;;;7.32;2.97;;;11.30;2.40;;;;;;20606540;28;20568;-39
2023/04/16 15:33:46;;;;;;;11.15;4.80;;;11.10;4.80;;;;;;20606398;28;20522;-39
2023/04/16 15:43:47;;;;;;;9.88;3.47;;;11.00;6.80;;;;;;20590623;28;20395;-40
2023/04/16 15:53:49;;;;;;;5.45;2.78;;;11.00;8.90;;;;;;20612144;28;20070;-39
2023/04/16 16:03:50;;;;;;;6.05;2.88;;;11.00;11.30;;;;;;20610164;28;20461;-40
2023/04/16 16:13:51;;;;;;;8.57;3.10;;;11.00;11.30;;;;;;20601673;28;20055;-39
2023/04/16 16:23:52;;;;;;;14.80;4.57;;;11.10;12.00;;;;;;20585322;28;20054;-39
2023/04/16 16:33:53;;;;;;;7.85;3.60;;;11.10;8.80;;;;;;20605170;28;20038;-39
2023/04/16 16:43:55;;;;;;;9.52;3.30;;;11.00;10.30;;;;;;20597438;28;20044;-39
2023/04/16 16:53:56;;;;;;;7.80;4.43;;;11.00;13.10;;;;;;20599625;28;21451;-41
2023/04/16 17:03:57;;;;;;;14.05;4.10;;;11.00;13.30;;;;;;20602861;28;20718;-40
2023/04/16 17:13:58;;;;;;;7.43;4.18;;;10.90;14.20;;;;;;20605191;28;20030;-39
2023/04/16 17:23:59;;;;;;;10.07;4.88;;;10.80;16.20;;;;;;20604739;28;20498;-39
2023/04/16 17:34:03;;;;;;;16.77;4.43;;;10.70;14.20;;;;;;20600871;28;20042;-39
2023/04/16 17:44:04;;;;;;;10.90;4.60;;;10.70;12.50;;;;;;20597137;28;20710;-40
2023/04/16 17:54:06;;;;;;;8.95;4.85;;;10.60;16.20;;;;;;20592105;28;20039;-40
2023/04/16 18:04:08;;;;;;;12.25;5.15;;;10.60;15.10;;;;;;20598620;28;20053;-39
2023/04/16 18:14:12;;;;;;;9.57;4.57;;;10.60;17.20;;;;;;20583279;28;20311;-39
2023/04/16 18:24:14;;;;;;;9.57;4.43;;;10.50;17.30;;;;;;20588747;28;20050;-39
2023/04/16 18:34:15;;;;;;;9.93;4.07;;;10.40;20.40;;;;;;20582458;28;20050;-39
2023/04/16 18:44:16;;;;;;;20.20;6.30;;;10.40;20.20;;;;;;20603222;28;20042;-40
2023/04/16 18:54:19;;;;;;;17.52;6.13;;;10.30;17.80;;;;;;20605719;28;20049;-40
2023/04/16 19:04:20;;;;;;;8.60;5.05;;;10.20;17.30;;;;;;20589410;28;20046;-39
2023/04/16 19:14:21;;;;;;;9.27;4.78;;;10.10;20.10;;;;;;20597728;28;20049;-40
2023/04/16 19:24:23;;;;;;;12.85;5.60;;;9.90;24.40;;;;;;20582714;28;20081;-40
2023/04/16 19:34:24;;;;;;;11.25;5.93;;;10.00;22.10;;;;;;20562465;28;20046;-39
2023/04/16 19:44:26;;;;;;;16.38;6.43;;;9.80;22.60;;;;;;20571124;28;20592;-41
2023/04/16 19:54:27;;;;;;;14.65;6.55;;;9.70;24.70;;;;;;20543967;28;20054;-40
2023/04/16 20:04:28;;;;;;;13.25;5.63;;;9.60;28.00;;;;;;20566832;28;20062;-40
2023/04/16 20:14:29;;;;;;;15.55;6.22;;;9.50;42.60;;;;;;20558421;28;20187;-40
2023/04/16 20:24:31;;;;;;;9.80;5.35;;;9.50;46.50;;;;;;20558057;28;20046;-41
2023/04/16 20:34:32;;;;;;;10.60;5.97;;;9.50;44.00;;;;;;20559740;28;20054;-41
2023/04/16 20:44:39;;;;;;;14.40;6.50;;;9.50;55.70;;;;;;20570457;28;20054;-40
2023/04/16 20:54:40;;;;;;;12.70;5.33;;;9.50;55.40;;;;;;20558371;28;20049;-40
2023/04/16 21:04:41;;;;;;;10.80;5.28;;;9.40;61.70;;;;;;20552466;28;20054;-41
2023/04/16 21:14:42;;;;;;;9.85;4.68;;;9.40;70.20;;;;;;20551674;28;20043;-40
2023/04/16 21:24:43;;;;;;;12.52;5.28;;;9.40;64.00;;;;;;20552175;28;20529;-40
2023/04/16 21:34:45;;;;;;;13.52;5.30;;;9.30;57.00;;;;;;20552338;28;20214;-40
2023/04/16 21:44:46;;;;;;;8.88;4.85;;;9.30;63.40;;;;;;20559511;28;20322;-40
2023/04/16 21:54:47;;;;;;;10.02;5.82;;;9.30;67.30;;;;;;20562448;28;20057;-40
2023/04/16 22:04:48;;;;;;;12.13;5.47;;;9.20;65.40;;;;;;20550608;28;20050;-41
2023/04/16 22:14:49;;;;;;;17.55;6.40;;;9.10;75.40;;;;;;20553690;28;20764;-40
2023/04/16 22:24:50;;;;;;;13.35;6.80;;;9.10;84.90;;;;;;20566775;28;20042;-40
2023/04/16 22:34:51;;;;;;;14.65;7.03;;;9.10;89.20;;;;;;20559444;28;20047;-41
2023/04/16 22:44:52;;;;;;;11.05;5.57;;;9.10;91.50;;;;;;20558867;28;20050;-40
2023/04/16 22:54:53;;;;;;;11.13;5.90;;;9.10;90.70;;;;;;20563411;28;20341;-40
2023/04/16 23:04:54;;;;;;;10.00;5.75;;;9.10;88.00;;;;;;20567435;28;20517;-40
2023/04/16 23:14:57;;;;;;;14.27;6.40;;;9.10;91.70;;;;;;20571912;28;20081;-40
2023/04/16 23:24:58;;;;;;;10.73;4.78;;;9.10;90.20;;;;;;20549262;28;20723;-40
2023/04/16 23:34:59;;;;;;;10.35;5.78;;;9.00;92.70;;;;;;20542358;28;20038;-41
2023/04/16 23:45:00;;;;;;;14.23;6.25;;;9.00;93.90;;;;;;20556904;28;20509;-40
2023/04/16 23:55:01;;;;;;;12.00;4.93;;;9.00;93.40;;;;;;20561567;28;20046;-40
